createdAt,value
2017-12-04T00:00:55.350Z,30.23
2017-12-04T00:03:22.898Z,34.03
2017-12-04T00:05:50.443Z,32.00
2017-12-04T00:08:18.002Z,32.27
2017-12-04T00:10:45.544Z,32.07
2017-12-04T00:13:13.134Z,32.57
2017-12-04T00:15:40.695Z,34.30
2017-12-04T00:18:08.267Z,31.07
2017-12-04T00:20:35.846Z,36.00
2017-12-04T00:23:04.159Z,32.93
2017-12-04T00:25:31.735Z,39.03
2017-12-04T00:27:59.302Z,35.70
2017-12-04T00:30:26.879Z,33.17
2017-12-04T00:32:54.433Z,36.67
2017-12-04T00:35:21.990Z,40.53
2017-12-04T00:37:49.563Z,35.67
2017-12-04T00:40:17.110Z,35.43
2017-12-04T00:42:44.665Z,41.67
2017-12-04T00:45:12.226Z,36.43
2017-12-04T00:47:39.795Z,41.03
2017-12-04T00:50:07.356Z,38.33
2017-12-04T00:52:34.947Z,31.33
2017-12-04T00:55:03.283Z,35.23
2017-12-04T00:57:30.835Z,41.37
2017-12-04T00:59:58.375Z,34.47
2017-12-04T01:02:25.945Z,38.83
2017-12-04T01:04:53.522Z,36.40
2017-12-04T01:07:21.070Z,35.63
2017-12-04T01:09:48.611Z,32.87
2017-12-04T01:12:16.163Z,32.70
2017-12-04T01:14:43.696Z,35.10
2017-12-04T01:17:11.274Z,35.00
2017-12-04T01:19:38.830Z,34.13
2017-12-04T01:22:07.166Z,33.20
2017-12-04T01:24:34.767Z,35.10
2017-12-04T01:27:03.083Z,31.47
2017-12-04T01:29:30.658Z,33.07
2017-12-04T01:31:58.978Z,35.00
2017-12-04T01:34:27.287Z,34.07
2017-12-04T01:36:54.822Z,33.50
2017-12-04T01:39:23.134Z,32.47
2017-12-04T01:41:50.712Z,34.30
2017-12-04T01:44:18.291Z,31.90
2017-12-04T01:46:45.831Z,33.23
2017-12-04T01:49:13.382Z,34.30
2017-12-04T01:51:40.982Z,31.47
2017-12-04T01:54:08.562Z,32.23
2017-12-04T01:56:36.874Z,37.67
2017-12-04T01:59:04.429Z,36.17
2017-12-04T02:01:31.983Z,36.50
2017-12-04T02:03:59.529Z,40.07
2017-12-04T02:06:27.109Z,35.33
2017-12-04T02:08:54.654Z,38.07
2017-12-04T02:11:22.208Z,41.00
2017-12-04T02:13:49.754Z,33.85
2017-12-04T02:16:18.075Z,35.27
2017-12-04T02:18:45.652Z,36.13
2017-12-04T02:21:13.210Z,37.50
2017-12-04T02:23:40.763Z,39.83
2017-12-04T02:26:08.311Z,35.50
2017-12-04T02:28:35.867Z,39.70
2017-12-04T02:31:03.439Z,34.90
2017-12-04T02:33:30.997Z,36.50
2017-12-04T02:35:58.548Z,34.40
2017-12-04T02:38:26.115Z,36.40
2017-12-04T02:40:53.657Z,32.60
2017-12-04T02:43:21.275Z,30.70
2017-12-04T02:45:48.861Z,28.60
2017-12-04T02:48:17.212Z,30.03
2017-12-04T02:50:44.818Z,29.10
2017-12-04T02:53:12.404Z,27.17
2017-12-04T02:55:40.764Z,27.70
2017-12-04T02:58:08.318Z,26.23
2017-12-04T03:00:35.893Z,26.90
2017-12-04T03:03:03.467Z,27.57
2017-12-04T03:05:31.014Z,27.27
2017-12-04T03:07:58.554Z,24.73
2017-12-04T03:10:26.094Z,30.87
2017-12-04T03:12:54.434Z,27.30
2017-12-04T03:15:21.975Z,27.87
2017-12-04T03:17:49.539Z,28.80
2017-12-04T03:20:17.106Z,25.27
2017-12-04T03:22:44.658Z,25.87
2017-12-04T03:25:12.243Z,25.03
2017-12-04T03:27:39.792Z,23.27
2017-12-04T03:30:07.375Z,26.50
2017-12-04T03:32:34.920Z,25.87
2017-12-04T03:35:02.558Z,25.00
2017-12-04T03:37:30.113Z,27.80
2017-12-04T03:39:57.673Z,29.27
2017-12-04T03:42:25.404Z,28.90
2017-12-04T03:44:52.963Z,33.17
2017-12-04T03:47:21.275Z,27.03
2017-12-04T03:49:48.940Z,26.93
2017-12-04T03:52:16.502Z,28.00
2017-12-04T03:54:44.087Z,33.33
2017-12-04T03:57:11.651Z,22.90
2017-12-04T03:59:39.214Z,27.70
2017-12-04T04:02:06.759Z,24.43
2017-12-04T04:04:34.311Z,25.63
2017-12-04T04:07:01.895Z,25.13
2017-12-04T04:09:29.459Z,24.50
2017-12-04T04:11:57.026Z,20.97
2017-12-04T04:14:24.563Z,24.37
2017-12-04T04:16:52.128Z,22.00
2017-12-04T04:19:19.692Z,23.77
2017-12-04T04:21:47.243Z,25.60
2017-12-04T04:24:14.851Z,22.70
2017-12-04T04:26:43.177Z,22.73
2017-12-04T04:29:10.735Z,22.30
2017-12-04T04:31:38.286Z,21.30
2017-12-04T04:34:05.831Z,23.83
2017-12-04T04:36:33.406Z,21.10
2017-12-04T04:39:00.947Z,25.37
2017-12-04T04:41:28.501Z,22.13
2017-12-04T04:43:56.082Z,24.50
2017-12-04T04:46:23.627Z,23.10
2017-12-04T04:48:51.202Z,25.10
2017-12-04T04:51:18.784Z,22.40
2017-12-04T04:53:46.331Z,20.77
2017-12-04T04:56:14.716Z,22.90
2017-12-04T04:58:42.300Z,29.50
2017-12-04T05:01:09.904Z,22.30
2017-12-04T05:03:37.488Z,26.40
2017-12-04T05:06:05.061Z,27.63
2017-12-04T05:08:32.603Z,29.60
2017-12-04T05:11:00.156Z,22.80
2017-12-04T05:13:27.744Z,21.00
2017-12-04T05:15:55.322Z,24.37
2017-12-04T05:18:22.933Z,21.67
2017-12-04T05:20:50.525Z,20.33
2017-12-04T05:23:18.071Z,17.87
2017-12-04T05:25:45.615Z,22.53
2017-12-04T05:28:13.157Z,21.33
2017-12-04T05:30:40.731Z,23.67
2017-12-04T05:33:08.274Z,22.43
2017-12-04T05:35:36.610Z,23.63
2017-12-04T05:38:04.170Z,23.50
2017-12-04T05:40:31.756Z,21.50
2017-12-04T05:42:59.347Z,23.40
2017-12-04T05:45:26.913Z,25.70
2017-12-04T05:47:54.456Z,17.63
2017-12-04T05:50:22.028Z,20.27
2017-12-04T05:52:49.586Z,22.23
2017-12-04T05:55:17.173Z,23.13
2017-12-04T05:57:44.729Z,22.20
2017-12-04T06:00:12.275Z,22.60
2017-12-04T06:02:39.860Z,21.10
2017-12-04T06:05:07.415Z,20.00
2017-12-04T06:07:34.983Z,22.17
2017-12-04T06:10:02.534Z,24.17
2017-12-04T06:12:30.110Z,20.97
2017-12-04T06:14:57.666Z,22.57
2017-12-04T06:17:27.255Z,21.60
2017-12-04T06:19:54.794Z,23.87
2017-12-04T06:22:22.368Z,23.60
2017-12-04T06:24:49.942Z,25.17
2017-12-04T06:27:17.495Z,21.77
2017-12-04T06:29:45.030Z,21.30
2017-12-04T06:32:12.567Z,23.50
2017-12-04T06:34:40.138Z,20.07
2017-12-04T06:37:08.472Z,22.33
2017-12-04T06:39:36.022Z,18.40
2017-12-04T06:42:03.578Z,22.83
2017-12-04T06:44:31.132Z,20.20
2017-12-04T06:46:58.742Z,19.53
2017-12-04T06:49:26.331Z,22.77
2017-12-04T06:51:53.884Z,21.27
2017-12-04T06:54:22.191Z,19.90
2017-12-04T06:56:49.738Z,22.67
2017-12-04T06:59:17.295Z,19.53
2017-12-04T07:01:44.873Z,18.10
2017-12-04T07:04:12.414Z,18.67
2017-12-04T07:06:39.960Z,19.07
2017-12-04T07:09:08.282Z,24.70
2017-12-04T07:11:35.847Z,22.30
2017-12-04T07:14:03.436Z,25.63
2017-12-04T07:16:30.984Z,26.10
2017-12-04T07:18:58.531Z,23.23
2017-12-04T07:21:26.070Z,18.63
2017-12-04T07:23:53.613Z,21.53
2017-12-04T07:26:21.177Z,18.60
2017-12-04T07:28:48.717Z,18.07
2017-12-04T07:31:16.266Z,15.73
2017-12-04T07:33:43.826Z,17.60
2017-12-04T07:36:12.149Z,13.27
2017-12-04T07:38:39.710Z,17.00
2017-12-04T07:41:07.270Z,19.67
2017-12-04T07:43:34.814Z,14.90
2017-12-04T07:46:14.683Z,15.77
2017-12-04T07:48:42.223Z,14.03
2017-12-04T07:51:09.827Z,15.17
2017-12-04T07:53:37.377Z,14.47
2017-12-04T07:56:04.923Z,14.80
2017-12-04T07:58:32.478Z,15.50
2017-12-04T08:01:00.038Z,17.33
2017-12-04T08:03:27.621Z,18.43
2017-12-04T08:05:55.261Z,19.77
2017-12-04T08:08:22.804Z,14.33
2017-12-04T08:10:50.350Z,18.50
2017-12-04T08:13:18.655Z,22.83
2017-12-04T08:15:46.226Z,16.23
2017-12-04T08:18:13.800Z,18.10
2017-12-04T08:20:41.363Z,14.53
2017-12-04T08:23:08.955Z,17.33
2017-12-04T08:25:36.524Z,16.50
2017-12-04T08:28:04.855Z,12.63
2017-12-04T08:30:32.426Z,14.70
2017-12-04T08:32:59.972Z,20.23
2017-12-04T08:35:27.523Z,12.53
2017-12-04T08:37:55.070Z,17.30
2017-12-04T08:40:22.636Z,12.70
2017-12-04T08:42:50.179Z,11.73
2017-12-04T08:45:17.751Z,14.00
2017-12-04T08:47:45.298Z,14.27
2017-12-04T08:50:12.846Z,11.90
2017-12-04T08:52:40.392Z,14.30
2017-12-04T08:55:08.708Z,11.67
2017-12-04T08:57:36.271Z,11.30
2017-12-04T09:00:03.843Z,22.30
2017-12-04T09:02:31.387Z,11.33
2017-12-04T09:04:58.946Z,10.10
2017-12-04T09:07:26.527Z,11.83
2017-12-04T09:09:54.103Z,10.10
2017-12-04T09:12:21.651Z,11.40
2017-12-04T09:14:49.204Z,13.37
2017-12-04T09:17:16.765Z,10.17
2017-12-04T09:19:44.302Z,8.17
2017-12-04T09:22:11.874Z,11.43
2017-12-04T09:24:39.411Z,8.60
2017-12-04T09:27:06.995Z,10.03
2017-12-04T09:29:34.582Z,7.53
2017-12-04T09:32:02.139Z,8.13
2017-12-04T09:34:29.673Z,9.30
2017-12-04T09:36:57.297Z,9.87
2017-12-04T09:39:24.827Z,9.23
2017-12-04T09:41:52.387Z,13.40
2017-12-04T09:44:19.935Z,9.03
2017-12-04T09:46:47.488Z,14.53
2017-12-04T09:49:15.043Z,9.47
2017-12-04T09:51:42.618Z,8.43
2017-12-04T09:54:10.193Z,9.53
2017-12-04T09:56:37.780Z,6.87
2017-12-04T09:59:06.097Z,11.30
2017-12-04T10:01:33.640Z,9.23
2017-12-04T10:04:01.194Z,10.20
2017-12-04T10:06:28.748Z,8.10
2017-12-04T10:08:56.314Z,7.37
2017-12-04T10:11:23.911Z,10.67
2017-12-04T10:13:51.486Z,10.03
2017-12-04T10:16:19.036Z,9.27
2017-12-04T10:18:46.607Z,10.67
2017-12-04T10:21:14.164Z,8.73
2017-12-04T10:23:41.702Z,8.53
2017-12-04T10:26:09.359Z,11.03
2017-12-04T10:28:36.886Z,9.60
2017-12-04T10:31:05.214Z,10.40
2017-12-04T10:33:32.762Z,7.70
2017-12-04T10:36:00.313Z,8.00
2017-12-04T10:38:27.876Z,8.00
2017-12-04T10:40:55.418Z,8.40
2017-12-04T10:43:22.999Z,8.30
2017-12-04T10:45:50.546Z,9.40
2017-12-04T10:48:18.103Z,9.17
2017-12-04T10:50:45.660Z,9.00
2017-12-04T10:53:13.209Z,8.90
2017-12-04T10:55:40.819Z,8.77
2017-12-04T10:58:08.359Z,10.07
2017-12-04T11:00:35.918Z,9.17
2017-12-04T11:03:03.459Z,10.57
2017-12-04T11:05:31.053Z,8.90
2017-12-04T11:07:58.622Z,11.37
2017-12-04T11:10:26.171Z,13.93
2017-12-04T11:12:54.503Z,12.37
2017-12-04T11:15:22.050Z,11.07
2017-12-04T11:17:50.369Z,10.47
2017-12-04T11:20:17.959Z,10.07
2017-12-04T11:22:45.508Z,11.53
2017-12-04T11:25:13.073Z,10.00
2017-12-04T11:27:40.641Z,10.57
2017-12-04T11:30:08.198Z,8.80
2017-12-04T11:32:35.764Z,9.80
2017-12-04T11:35:03.300Z,9.67
2017-12-04T11:37:30.863Z,9.33
2017-12-04T11:39:58.402Z,10.33
2017-12-04T11:42:25.974Z,17.73
2017-12-04T11:44:53.524Z,26.30
2017-12-04T11:47:21.084Z,19.63
2017-12-04T11:49:48.721Z,19.27
2017-12-04T11:52:16.247Z,23.10
2017-12-04T11:54:43.803Z,16.23
2017-12-04T11:57:11.360Z,10.83
2017-12-04T11:59:38.931Z,11.20
2017-12-04T12:02:06.485Z,12.40
2017-12-04T12:04:34.039Z,12.13
2017-12-04T12:07:01.631Z,13.70
2017-12-04T12:09:29.944Z,11.50
2017-12-04T12:11:57.525Z,11.87
2017-12-04T12:14:26.015Z,14.87
2017-12-04T12:16:53.554Z,12.00
2017-12-04T12:19:21.169Z,12.00
2017-12-04T12:21:48.719Z,18.23
2017-12-04T12:24:16.269Z,13.43
2017-12-04T12:26:43.825Z,12.43
2017-12-04T12:29:11.404Z,12.63
2017-12-04T12:31:38.970Z,15.63
2017-12-04T12:34:06.504Z,9.73
2017-12-04T12:36:34.059Z,11.10
2017-12-04T12:39:01.613Z,18.77
2017-12-04T12:41:29.154Z,10.67
2017-12-04T12:43:56.722Z,11.33
2017-12-04T12:46:24.272Z,14.17
2017-12-04T12:48:51.814Z,18.70
2017-12-04T12:51:19.382Z,13.00
2017-12-04T12:53:46.918Z,11.80
2017-12-04T12:56:15.226Z,12.23
2017-12-04T12:58:42.789Z,11.57
2017-12-04T13:01:10.342Z,9.20
2017-12-04T13:03:37.882Z,12.00
2017-12-04T13:06:06.179Z,10.40
2017-12-04T13:08:33.723Z,13.07
2017-12-04T13:11:01.270Z,13.60
2017-12-04T13:13:29.606Z,9.87
2017-12-04T13:15:57.175Z,11.13
2017-12-04T13:18:24.732Z,13.90
2017-12-04T13:20:52.291Z,10.30
2017-12-04T13:23:19.830Z,14.10
2017-12-04T13:25:47.363Z,8.70
2017-12-04T13:28:14.910Z,11.37
2017-12-04T13:30:43.263Z,9.93
2017-12-04T13:33:22.566Z,18.50
2017-12-04T13:36:01.972Z,13.13
2017-12-04T13:38:29.544Z,14.50
2017-12-04T13:40:57.093Z,10.13
2017-12-04T13:43:25.567Z,12.70
2017-12-04T13:45:53.878Z,9.90
2017-12-04T13:48:21.457Z,7.83
2017-12-04T13:50:49.017Z,14.30
2017-12-04T13:53:16.580Z,10.43
2017-12-04T13:55:44.143Z,11.23
2017-12-04T13:58:11.682Z,7.40
2017-12-04T14:00:39.244Z,13.43
2017-12-04T14:03:06.831Z,10.43
2017-12-04T14:05:34.372Z,8.97
2017-12-04T14:08:01.924Z,13.67
2017-12-04T14:10:29.515Z,9.77
2017-12-04T14:12:57.059Z,8.37
2017-12-04T14:15:24.600Z,8.67
2017-12-04T14:17:52.139Z,9.20
2017-12-04T14:20:19.689Z,10.87
2017-12-04T14:22:48.020Z,7.20
2017-12-04T14:25:15.575Z,7.87
2017-12-04T14:27:43.118Z,12.63
2017-12-04T14:30:10.677Z,8.10
2017-12-04T14:32:38.251Z,7.60
2017-12-04T14:35:05.812Z,9.70
2017-12-04T14:37:33.362Z,11.17
2017-12-04T14:40:00.916Z,13.17
2017-12-04T14:42:28.450Z,12.30
2017-12-04T14:45:19.635Z,13.33
2017-12-04T14:47:47.198Z,9.00
2017-12-04T14:50:14.752Z,8.97
2017-12-04T14:52:42.324Z,9.10
2017-12-04T14:55:09.933Z,15.57
2017-12-04T14:57:37.515Z,12.17
2017-12-04T15:00:05.091Z,9.23
2017-12-04T15:02:32.643Z,6.27
2017-12-04T15:05:00.217Z,8.63
2017-12-04T15:07:27.762Z,7.50
2017-12-04T15:09:55.345Z,8.17
2017-12-04T15:12:22.908Z,6.40
2017-12-04T15:14:50.478Z,5.33
2017-12-04T15:17:18.840Z,7.00
2017-12-04T15:19:46.416Z,8.10
2017-12-04T15:22:14.789Z,6.20
2017-12-04T15:24:43.111Z,6.80
2017-12-04T15:27:10.730Z,6.07
2017-12-04T15:29:39.084Z,9.50
2017-12-04T15:32:06.654Z,6.43
2017-12-04T15:34:34.214Z,10.23
2017-12-04T15:37:01.770Z,7.67
2017-12-04T15:39:40.717Z,8.90
2017-12-04T15:42:09.145Z,7.83
2017-12-04T15:44:38.442Z,7.30
2017-12-04T15:47:06.038Z,6.27
2017-12-04T15:49:33.590Z,10.03
2017-12-04T15:52:01.148Z,6.33
2017-12-04T15:54:28.716Z,6.10
2017-12-04T15:56:56.263Z,6.13
2017-12-04T15:59:23.855Z,9.13
2017-12-04T16:01:52.190Z,10.23
2017-12-04T16:04:20.559Z,8.90
2017-12-04T16:06:48.128Z,7.17
2017-12-04T16:09:15.697Z,7.63
2017-12-04T16:11:43.246Z,9.50
2017-12-04T16:14:10.788Z,6.70
2017-12-04T16:16:39.085Z,6.80
2017-12-04T16:19:06.637Z,9.70
2017-12-04T16:21:34.177Z,7.83
2017-12-04T16:24:01.765Z,8.90
2017-12-04T16:26:29.338Z,8.77
2017-12-04T16:28:56.934Z,8.53
2017-12-04T16:31:25.253Z,9.57
2017-12-04T16:33:52.801Z,10.40
2017-12-04T16:36:20.347Z,8.40
2017-12-04T16:38:47.924Z,8.13
2017-12-04T16:41:15.498Z,9.53
2017-12-04T16:43:43.095Z,10.03
2017-12-04T16:46:10.672Z,9.93
2017-12-04T16:48:39.010Z,8.20
2017-12-04T16:51:06.551Z,10.40
2017-12-04T16:53:34.095Z,9.60
2017-12-04T16:56:01.690Z,11.83
2017-12-04T16:58:29.238Z,7.93
2017-12-04T17:00:56.788Z,8.03
2017-12-04T17:03:24.340Z,12.80
2017-12-04T17:05:51.918Z,9.53
2017-12-04T17:08:19.480Z,10.47
2017-12-04T17:10:47.018Z,9.67
2017-12-04T17:13:15.514Z,10.83
2017-12-04T17:15:43.069Z,10.07
2017-12-04T17:18:10.626Z,14.30
2017-12-04T17:20:38.196Z,11.70
2017-12-04T17:23:05.787Z,13.03
2017-12-04T17:25:33.338Z,12.47
2017-12-04T17:28:04.395Z,16.83
2017-12-04T17:30:36.200Z,12.40
2017-12-04T17:33:03.771Z,10.93
2017-12-04T17:35:31.334Z,11.40
2017-12-04T17:37:59.809Z,14.17
2017-12-04T17:40:27.366Z,12.83
2017-12-04T17:42:54.945Z,17.83
2017-12-04T17:45:22.524Z,11.00
2017-12-04T17:47:50.072Z,15.20
2017-12-04T17:50:17.643Z,13.10
2017-12-04T17:52:45.199Z,14.57
2017-12-04T17:55:12.764Z,14.93
2017-12-04T17:57:40.346Z,16.53
2017-12-04T18:00:07.906Z,12.20
2017-12-04T18:02:35.484Z,15.70
2017-12-04T18:05:03.799Z,16.27
2017-12-04T18:07:31.399Z,13.07
2017-12-04T18:09:58.987Z,16.40
2017-12-04T18:12:27.307Z,13.63
2017-12-04T18:14:54.943Z,13.90
2017-12-04T18:17:22.523Z,16.37
2017-12-04T18:19:50.067Z,14.57
2017-12-04T18:22:17.650Z,14.13
2017-12-04T18:24:45.207Z,17.00
2017-12-04T18:27:12.771Z,13.47
2017-12-04T18:29:40.368Z,19.57
2017-12-04T18:32:17.613Z,17.03
2017-12-04T18:34:45.226Z,16.13
2017-12-04T18:37:12.780Z,16.07
2017-12-04T18:39:40.330Z,18.80
2017-12-04T18:42:07.923Z,16.30
2017-12-04T18:44:35.490Z,15.70
2017-12-04T18:47:03.083Z,15.73
2017-12-04T18:49:30.727Z,16.10
2017-12-04T18:51:58.311Z,18.77
2017-12-04T18:54:25.891Z,19.47
2017-12-04T18:56:53.439Z,17.43
2017-12-04T18:59:21.019Z,19.77
2017-12-04T19:01:48.625Z,19.30
2017-12-04T19:04:16.174Z,21.40
2017-12-04T19:06:44.505Z,17.77
2017-12-04T19:09:12.094Z,14.83
2017-12-04T19:11:40.607Z,18.40
2017-12-04T19:14:26.437Z,19.17
2017-12-04T19:16:54.023Z,15.37
2017-12-04T19:19:21.589Z,18.87
2017-12-04T19:21:49.164Z,19.90
2017-12-04T19:24:17.507Z,18.40
2017-12-04T19:26:48.415Z,25.23
2017-12-04T19:29:16.960Z,19.80
2017-12-04T19:31:45.307Z,23.07
2017-12-04T19:37:06.238Z,27.63
2017-12-04T19:39:33.872Z,21.67
2017-12-04T19:42:03.413Z,26.23
2017-12-04T19:44:32.035Z,34.50
2017-12-04T19:47:07.913Z,28.10
2017-12-04T19:49:35.500Z,27.70
2017-12-04T19:52:03.133Z,19.40
2017-12-04T19:54:30.686Z,18.90
2017-12-04T19:56:58.277Z,20.60
2017-12-04T19:59:25.839Z,14.63
2017-12-04T20:01:53.406Z,17.03
2017-12-04T20:04:20.984Z,19.43
2017-12-04T20:06:48.581Z,18.90
2017-12-04T20:09:16.150Z,20.10
2017-12-04T20:11:43.765Z,20.50
2017-12-04T20:14:22.372Z,15.73
2017-12-04T20:16:49.944Z,17.15
2017-12-04T20:19:17.519Z,15.80
2017-12-04T20:21:45.831Z,17.50
2017-12-04T20:24:13.411Z,18.97
2017-12-04T20:26:41.004Z,16.93
2017-12-04T20:29:09.358Z,17.17
2017-12-04T20:31:36.964Z,18.77
2017-12-04T20:34:05.286Z,15.80
2017-12-04T20:36:32.919Z,16.27
2017-12-04T20:39:00.496Z,18.57
2017-12-04T20:41:28.056Z,16.57
2017-12-04T20:43:55.657Z,16.20
2017-12-04T20:46:24.019Z,18.80
2017-12-04T20:48:51.560Z,21.67
2017-12-04T20:51:19.128Z,19.10
2017-12-04T20:53:56.655Z,17.63
2017-12-04T20:56:24.213Z,17.90
2017-12-04T20:58:51.812Z,17.00
2017-12-04T21:01:19.434Z,16.93
2017-12-04T21:03:47.007Z,19.33
2017-12-04T21:06:15.343Z,15.47
2017-12-04T21:08:54.753Z,16.40
2017-12-04T21:11:34.155Z,17.57
2017-12-04T21:14:13.483Z,18.40
2017-12-04T21:16:53.079Z,23.40
2017-12-04T21:19:20.636Z,23.97
2017-12-04T21:21:48.191Z,20.17
2017-12-04T21:24:15.778Z,26.23
2017-12-04T21:26:43.320Z,23.00
2017-12-04T21:29:10.874Z,24.00
2017-12-04T21:31:38.450Z,20.20
2017-12-04T21:34:06.038Z,16.83
2017-12-04T21:36:33.610Z,17.07
2017-12-04T21:39:01.166Z,17.90
2017-12-04T21:41:28.730Z,14.13
2017-12-04T21:43:56.300Z,15.30
2017-12-04T21:46:24.654Z,14.57
2017-12-04T21:48:52.274Z,21.50
2017-12-04T21:51:19.851Z,20.17
2017-12-04T21:53:47.426Z,17.73
2017-12-04T21:56:14.983Z,19.00
2017-12-04T21:58:42.530Z,18.80
2017-12-04T22:01:10.107Z,16.20
2017-12-04T22:03:37.646Z,16.87
2017-12-04T22:06:05.255Z,18.93
2017-12-04T22:08:32.809Z,17.40
2017-12-04T22:11:00.388Z,17.60
2017-12-04T22:13:28.810Z,16.13
2017-12-04T22:15:56.410Z,18.60
2017-12-04T22:18:24.004Z,16.30
2017-12-04T22:20:51.573Z,19.07
2017-12-04T22:23:19.147Z,17.83
2017-12-04T22:25:46.702Z,18.60
2017-12-04T22:28:14.274Z,14.63
2017-12-04T22:30:41.858Z,19.27
2017-12-04T22:33:09.427Z,21.60
2017-12-04T22:35:37.029Z,15.90
2017-12-04T22:38:04.610Z,15.03
2017-12-04T22:40:32.179Z,21.60
2017-12-04T22:42:59.718Z,18.73
2017-12-04T22:45:27.285Z,13.60
2017-12-04T22:47:54.854Z,19.23
2017-12-04T22:50:22.405Z,19.23
2017-12-04T22:52:49.945Z,16.00
2017-12-04T22:55:18.274Z,16.93
2017-12-04T22:57:45.827Z,13.07
2017-12-04T23:00:13.386Z,15.23
2017-12-04T23:02:40.952Z,17.43
2017-12-04T23:05:08.557Z,14.80
2017-12-04T23:07:36.124Z,15.33
2017-12-04T23:10:03.678Z,11.07
2017-12-04T23:12:31.992Z,16.73
2017-12-04T23:14:59.552Z,13.27
2017-12-04T23:17:27.143Z,11.57
2017-12-04T23:19:54.703Z,11.13
2017-12-04T23:22:22.263Z,16.23
2017-12-04T23:24:49.832Z,11.60
2017-12-04T23:27:17.396Z,16.23
2017-12-04T23:29:44.981Z,16.13
2017-12-04T23:32:12.535Z,13.80
2017-12-04T23:34:40.087Z,13.00
2017-12-04T23:37:07.638Z,11.60
2017-12-04T23:39:35.192Z,11.20
2017-12-04T23:42:02.770Z,14.50
2017-12-04T23:44:31.084Z,17.30
2017-12-04T23:46:58.669Z,14.93
2017-12-04T23:49:26.208Z,9.27
2017-12-04T23:51:53.763Z,13.73
2017-12-04T23:54:22.121Z,17.53
2017-12-04T23:56:50.431Z,14.37
2017-12-04T23:59:17.977Z,14.70
